createdAt,value
2023-03-06T00:02:14.294Z,96.50
2023-03-06T00:07:05.883Z,96.58
2023-03-06T00:11:57.608Z,96.94
2023-03-06T00:16:49.253Z,96.80
2023-03-06T00:21:43.775Z,96.85
2023-03-06T00:26:36.735Z,96.80
2023-03-06T00:31:28.524Z,96.92
2023-03-06T00:36:20.130Z,97.04
2023-03-06T00:41:13.016Z,96.88
2023-03-06T00:46:05.819Z,97.14
2023-03-06T00:50:57.481Z,97.43
2023-03-06T00:55:50.503Z,96.91
2023-03-06T01:00:42.318Z,97.16
2023-03-06T01:05:35.900Z,97.53
2023-03-06T01:10:28.227Z,98.03
2023-03-06T01:15:20.458Z,98.46
2023-03-06T01:20:17.068Z,98.11
2023-03-06T01:25:09.226Z,98.46
2023-03-06T01:30:00.855Z,98.41
2023-03-06T01:34:52.596Z,98.53
2023-03-06T01:39:44.344Z,98.73
2023-03-06T01:44:35.929Z,99.00
2023-03-06T01:49:38.691Z,98.76
2023-03-06T01:54:47.482Z,99.36
2023-03-06T01:59:42.400Z,99.43
2023-03-06T02:04:35.285Z,99.40
2023-03-06T02:09:30.197Z,99.60
2023-03-06T02:14:22.166Z,100.00
2023-03-06T02:19:32.156Z,100.00
2023-03-06T02:24:48.661Z,100.00
2023-03-06T02:29:40.518Z,100.00
2023-03-06T02:34:38.183Z,100.00
2023-03-06T02:39:33.739Z,100.00
2023-03-06T02:44:28.126Z,100.00
2023-03-06T02:49:19.754Z,100.00
2023-03-06T02:54:11.431Z,100.00
2023-03-06T02:59:03.598Z,100.00
2023-03-06T03:03:55.526Z,100.00
2023-03-06T03:08:47.103Z,100.00
2023-03-06T03:13:38.802Z,100.00
2023-03-06T03:18:30.748Z,100.00
2023-03-06T03:23:22.842Z,100.00
2023-03-06T03:28:14.460Z,100.00
2023-03-06T03:33:06.274Z,100.00
2023-03-06T03:37:57.911Z,100.00
2023-03-06T03:42:49.540Z,100.00
2023-03-06T03:47:41.314Z,100.00
2023-03-06T03:52:33.080Z,100.00
2023-03-06T03:57:24.666Z,100.00
2023-03-06T04:02:17.170Z,100.00
2023-03-06T04:07:09.641Z,100.00
2023-03-06T04:12:01.402Z,100.00
2023-03-06T04:16:52.964Z,100.00
2023-03-06T04:21:44.582Z,100.00
2023-03-06T04:26:36.980Z,100.00
2023-03-06T04:31:28.718Z,100.00
2023-03-06T04:36:34.386Z,100.00
2023-03-06T04:41:26.170Z,100.00
2023-03-06T04:46:17.933Z,100.00
2023-03-06T04:51:12.813Z,100.00
2023-03-06T04:56:04.855Z,100.00
2023-03-06T05:00:56.465Z,100.00
2023-03-06T05:05:48.131Z,100.00
2023-03-06T05:10:39.889Z,100.00
2023-03-06T05:15:31.604Z,100.00
2023-03-06T05:20:23.200Z,100.00
2023-03-06T05:25:14.850Z,100.00
2023-03-06T05:30:07.679Z,100.00
2023-03-06T05:34:59.389Z,100.00
2023-03-06T05:39:51.615Z,100.00
2023-03-06T05:44:43.281Z,100.00
2023-03-06T05:49:36.294Z,100.00
2023-03-06T05:54:28.005Z,100.00
2023-03-06T05:59:19.626Z,100.00
2023-03-06T06:04:11.653Z,100.00
2023-03-06T06:09:03.694Z,100.00
2023-03-06T06:13:55.405Z,100.00
2023-03-06T06:18:47.114Z,100.00
2023-03-06T06:23:38.880Z,100.00
2023-03-06T06:28:31.452Z,100.00
2023-03-06T06:33:24.072Z,100.00
2023-03-06T06:38:15.776Z,100.00
2023-03-06T06:43:07.602Z,100.00
2023-03-06T06:47:59.297Z,100.00
2023-03-06T06:52:51.031Z,100.00
2023-03-06T06:57:43.631Z,100.00
2023-03-06T07:02:35.323Z,100.00
2023-03-06T07:07:27.301Z,100.00
2023-03-06T07:12:18.899Z,100.00
2023-03-06T07:17:10.504Z,100.00
2023-03-06T07:22:02.552Z,100.00
2023-03-06T07:26:54.196Z,100.00
2023-03-06T07:31:45.944Z,100.00
2023-03-06T07:36:39.655Z,100.00
2023-03-06T07:41:31.287Z,100.00
2023-03-06T07:46:22.975Z,100.00
2023-03-06T07:51:20.592Z,100.00
2023-03-06T07:56:12.853Z,100.00
2023-03-06T08:01:12.610Z,100.00
2023-03-06T08:06:13.329Z,100.00
2023-03-06T08:11:05.692Z,100.00
2023-03-06T08:15:57.424Z,100.00
2023-03-06T08:20:49.096Z,100.00
2023-03-06T08:25:40.704Z,100.00
2023-03-06T08:30:32.328Z,100.00
2023-03-06T08:35:23.934Z,100.00
2023-03-06T08:40:15.717Z,100.00
2023-03-06T08:45:08.222Z,100.00
2023-03-06T08:50:00.802Z,100.00
2023-03-06T08:54:52.556Z,100.00
2023-03-06T08:59:44.194Z,100.00
2023-03-06T09:04:35.834Z,100.00
2023-03-06T09:09:27.474Z,100.00
2023-03-06T09:14:19.135Z,100.00
2023-03-06T09:19:10.833Z,100.00
2023-03-06T09:24:02.519Z,100.00
2023-03-06T09:28:54.741Z,100.00
2023-03-06T09:33:47.383Z,100.00
2023-03-06T09:38:39.035Z,100.00
2023-03-06T09:43:42.326Z,100.00
2023-03-06T09:49:01.065Z,100.00
2023-03-06T09:54:05.116Z,100.00
2023-03-06T09:59:07.494Z,100.00
2023-03-06T10:04:27.815Z,99.26
2023-03-06T10:09:31.470Z,99.13
2023-03-06T10:14:40.255Z,98.94
2023-03-06T10:19:34.790Z,97.10
2023-03-06T10:24:45.284Z,97.54
2023-03-06T10:30:18.359Z,96.29
2023-03-06T10:35:21.802Z,93.46
2023-03-06T10:40:23.862Z,92.95
2023-03-06T10:45:17.428Z,92.74
2023-03-06T10:50:29.018Z,93.15
2023-03-06T10:55:39.026Z,93.89
2023-03-06T11:00:38.157Z,92.81
2023-03-06T11:05:29.985Z,93.08
2023-03-06T11:10:23.350Z,92.82
2023-03-06T11:15:15.080Z,92.30
2023-03-06T11:20:20.577Z,90.73
2023-03-06T11:25:16.577Z,89.56
2023-03-06T11:30:24.182Z,89.48
2023-03-06T11:35:59.457Z,88.16
2023-03-06T11:41:01.574Z,86.55
2023-03-06T11:46:07.192Z,85.76
2023-03-06T11:51:11.648Z,85.89
2023-03-06T11:56:15.850Z,85.78
2023-03-06T12:01:35.257Z,85.87
2023-03-06T12:06:36.029Z,86.37
2023-03-06T12:11:44.267Z,86.95
2023-03-06T12:17:13.538Z,85.60
2023-03-06T12:22:21.151Z,85.72
2023-03-06T12:27:23.238Z,84.65
2023-03-06T12:32:35.329Z,83.97
2023-03-06T12:37:47.723Z,83.48
2023-03-06T12:43:13.327Z,83.54
2023-03-06T12:48:15.024Z,83.93
2023-03-06T12:53:14.885Z,82.53
2023-03-06T12:58:28.295Z,81.98
2023-03-06T13:03:30.731Z,81.33
2023-03-06T13:08:44.257Z,83.28
2023-03-06T13:13:47.354Z,85.33
2023-03-06T13:18:41.948Z,86.60
2023-03-06T13:23:33.555Z,86.89
2023-03-06T13:28:51.566Z,87.76
2023-03-06T13:33:43.227Z,89.03
2023-03-06T13:38:40.810Z,89.31
2023-03-06T13:43:42.464Z,89.06
2023-03-06T13:48:45.113Z,89.18
2023-03-06T13:54:10.736Z,89.61
2023-03-06T13:59:17.426Z,89.92
2023-03-06T14:04:27.610Z,89.99
2023-03-06T14:09:26.919Z,88.84
2023-03-06T14:14:27.295Z,89.13
2023-03-06T14:19:19.586Z,89.75
2023-03-06T14:24:16.946Z,89.58
2023-03-06T14:29:23.011Z,89.35
2023-03-06T14:34:20.725Z,89.31
2023-03-06T14:39:35.509Z,88.36
2023-03-06T14:44:27.113Z,88.74
2023-03-06T14:49:21.164Z,88.44
2023-03-06T14:54:28.757Z,90.29
2023-03-06T14:59:29.883Z,90.69
2023-03-06T15:04:48.337Z,90.04
2023-03-06T15:09:44.822Z,89.54
2023-03-06T15:14:39.127Z,90.36
2023-03-06T15:19:40.472Z,90.24
2023-03-06T15:24:36.794Z,89.22
2023-03-06T15:29:28.525Z,89.39
2023-03-06T15:34:25.300Z,90.47
2023-03-06T15:39:40.089Z,90.39
2023-03-06T15:44:32.906Z,90.21
2023-03-06T15:49:25.095Z,90.33
2023-03-06T15:54:16.803Z,91.19
2023-03-06T15:59:17.009Z,91.66
2023-03-06T16:04:08.648Z,91.68
2023-03-06T16:09:00.259Z,92.78
2023-03-06T16:13:52.687Z,92.66
2023-03-06T16:18:44.313Z,92.59
2023-03-06T16:23:38.890Z,92.45
2023-03-06T16:28:34.728Z,93.01
2023-03-06T16:33:26.528Z,93.14
2023-03-06T16:38:18.118Z,94.38
2023-03-06T16:43:10.772Z,93.85
2023-03-06T16:48:02.470Z,93.05
2023-03-06T16:52:55.713Z,93.55
2023-03-06T16:57:47.610Z,92.98
2023-03-06T17:02:39.587Z,93.36
2023-03-06T17:07:33.511Z,93.19
2023-03-06T17:12:25.241Z,93.17
2023-03-06T17:17:17.187Z,93.61
2023-03-06T17:22:08.815Z,93.25
2023-03-06T17:27:00.431Z,93.07
2023-03-06T17:31:52.024Z,92.98
2023-03-06T17:36:44.109Z,91.38
2023-03-06T17:41:35.787Z,91.93
2023-03-06T17:46:27.700Z,90.77
2023-03-06T17:51:19.409Z,89.79
2023-03-06T17:56:13.906Z,90.22
2023-03-06T18:01:17.685Z,90.96
2023-03-06T18:06:09.629Z,90.81
2023-03-06T18:11:06.056Z,91.36
2023-03-06T18:15:57.731Z,91.06
2023-03-06T18:20:49.705Z,91.01
2023-03-06T18:25:41.654Z,91.70
2023-03-06T18:30:37.492Z,91.24
2023-03-06T18:35:29.245Z,90.96
2023-03-06T18:40:20.935Z,90.06
2023-03-06T18:45:12.962Z,89.78
2023-03-06T18:50:05.143Z,90.41
2023-03-06T18:54:56.996Z,90.96
2023-03-06T18:59:48.658Z,90.79
2023-03-06T19:04:40.343Z,91.29
2023-03-06T19:09:32.017Z,90.71
2023-03-06T19:14:23.658Z,91.45
2023-03-06T19:19:15.414Z,91.35
2023-03-06T19:24:13.284Z,90.75
2023-03-06T19:29:04.953Z,89.37
2023-03-06T19:33:57.259Z,87.94
2023-03-06T19:38:52.688Z,87.19
2023-03-06T19:43:44.335Z,87.83
2023-03-06T19:48:35.970Z,87.75
2023-03-06T19:53:28.356Z,87.28
2023-03-06T19:58:20.026Z,87.73
2023-03-06T20:03:11.648Z,87.17
2023-03-06T20:08:03.530Z,86.86
2023-03-06T20:12:55.282Z,86.46
2023-03-06T20:17:46.932Z,84.74
2023-03-06T20:22:38.757Z,83.85
2023-03-06T20:27:30.435Z,84.06
2023-03-06T20:32:22.239Z,83.78
2023-03-06T20:37:13.849Z,83.32
2023-03-06T20:42:06.048Z,83.16
2023-03-06T20:46:58.032Z,83.22
2023-03-06T20:51:50.474Z,83.63
2023-03-06T20:56:44.954Z,83.15
2023-03-06T21:01:41.148Z,83.30
2023-03-06T21:06:33.600Z,82.83
2023-03-06T21:11:25.625Z,82.91
2023-03-06T21:16:20.556Z,83.22
2023-03-06T21:21:18.533Z,84.16
2023-03-06T21:26:15.718Z,84.25
2023-03-06T21:31:09.571Z,84.59
2023-03-06T21:36:01.480Z,85.07
2023-03-06T21:40:53.255Z,85.23
2023-03-06T21:45:46.292Z,85.51
2023-03-06T21:50:37.973Z,86.10
2023-03-06T21:55:29.627Z,86.18
2023-03-06T22:00:23.940Z,86.53
2023-03-06T22:05:16.122Z,86.95
2023-03-06T22:10:12.029Z,87.53
2023-03-06T22:15:05.025Z,87.56
2023-03-06T22:19:56.734Z,87.23
2023-03-06T22:24:48.563Z,87.67
2023-03-06T22:29:40.195Z,87.64
2023-03-06T22:34:32.315Z,87.81
2023-03-06T22:39:24.051Z,87.67
2023-03-06T22:44:18.970Z,88.11
2023-03-06T22:49:12.738Z,87.97
2023-03-06T22:54:05.665Z,87.80
2023-03-06T22:58:57.941Z,88.83
2023-03-06T23:03:52.121Z,88.75
2023-03-06T23:08:48.305Z,88.68
2023-03-06T23:13:40.160Z,88.11
2023-03-06T23:18:31.973Z,88.48
2023-03-06T23:23:23.667Z,88.43
2023-03-06T23:28:15.823Z,88.89
2023-03-06T23:33:08.344Z,88.71
2023-03-06T23:38:00.418Z,88.91
2023-03-06T23:42:52.797Z,89.06
2023-03-06T23:47:44.470Z,90.11
2023-03-06T23:52:36.557Z,90.01
2023-03-06T23:57:29.521Z,90.33
